Time;durP1;ratioP1;P1;durP2;ratioP2;P2;SDS_P1;SDS_P2;PMS_P1;PMS_P2;Temp;Humidity;BMP_temperature;BMP_pressure;BME280_temperature;BME280_humidity;BME280_pressure;Samples;Min_cycle;Max_cycle;Signal;HPM_P1;HPM_P2
2022/10/21 00:00:36;;;;;;;9.00;7.28;;;15.90;99.90;;;;;;5036404;28;20174;-81
2022/10/21 00:03:06;;;;;;;8.75;7.35;;;15.90;99.90;;;;;;5034031;28;20248;-80
2022/10/21 00:05:32;;;;;;;9.13;7.45;;;15.90;99.90;;;;;;5036609;28;20228;-79
2022/10/21 00:07:58;;;;;;;8.48;6.65;;;15.90;99.90;;;;;;5049448;28;20179;-83
2022/10/21 00:10:24;;;;;;;7.57;6.32;;;15.90;99.90;;;;;;5025633;28;20269;-81
2022/10/21 00:12:51;;;;;;;9.70;7.00;;;15.90;99.90;;;;;;5035516;28;20213;-80
2022/10/21 00:15:17;;;;;;;7.70;6.55;;;16.00;99.90;;;;;;5032921;28;20252;-80
2022/10/21 00:17:47;;;;;;;9.20;6.88;;;16.00;99.90;;;;;;5035944;28;21497;-80
2022/10/21 00:20:15;;;;;;;7.03;6.10;;;16.00;99.90;;;;;;5036218;28;20197;-80
2022/10/21 00:22:43;;;;;;;9.00;5.93;;;16.00;99.90;;;;;;5036060;28;20178;-81
2022/10/21 00:25:12;;;;;;;6.95;6.25;;;16.00;99.90;;;;;;5033352;28;20237;-81
2022/10/21 00:27:38;;;;;;;7.05;5.68;;;16.10;99.90;;;;;;5034948;28;20166;-81
2022/10/21 00:30:05;;;;;;;5.80;5.20;;;16.10;99.90;;;;;;5036114;28;20174;-81
2022/10/21 00:32:34;;;;;;;6.80;5.60;;;16.10;99.90;;;;;;5035898;28;20202;-80
2022/10/21 00:34:59;;;;;;;8.40;5.68;;;16.10;99.90;;;;;;5034089;28;20264;-81
2022/10/21 00:37:27;;;;;;;7.85;5.22;;;16.00;99.90;;;;;;5036306;28;20265;-80
2022/10/21 00:39:53;;;;;;;7.05;5.35;;;16.10;99.90;;;;;;5034789;28;20473;-80
2022/10/21 00:42:28;;;;;;;7.05;5.63;;;16.10;99.90;;;;;;5023173;28;20187;-80
2022/10/21 00:45:04;;;;;;;5.60;4.90;;;16.10;99.90;;;;;;5039803;28;20268;-81
2022/10/21 00:47:34;;;;;;;5.50;4.72;;;16.10;99.90;;;;;;5022064;28;20189;-79
2022/10/21 00:50:02;;;;;;;7.22;5.07;;;16.10;99.90;;;;;;5025565;28;20183;-79
2022/10/21 00:52:30;;;;;;;7.15;5.35;;;16.10;99.90;;;;;;5031902;28;20209;-79
2022/10/21 00:55:06;;;;;;;6.30;4.60;;;16.10;99.90;;;;;;5031493;28;20256;-77
2022/10/21 00:57:34;;;;;;;6.75;4.70;;;16.10;99.90;;;;;;5029058;28;20221;-80
2022/10/21 01:00:01;;;;;;;5.53;4.72;;;16.10;99.90;;;;;;5035523;28;20198;-81
2022/10/21 01:02:28;;;;;;;5.10;4.55;;;16.10;99.90;;;;;;5034708;28;20259;-78
2022/10/21 01:04:58;;;;;;;6.50;5.10;;;16.20;99.90;;;;;;5035332;28;20249;-81
2022/10/21 01:07:24;;;;;;;6.15;5.13;;;16.20;99.90;;;;;;5035325;28;20189;-80
2022/10/21 01:09:55;;;;;;;7.30;5.18;;;16.20;99.90;;;;;;5034092;28;20205;-81
2022/10/21 01:12:26;;;;;;;6.43;5.22;;;16.10;99.90;;;;;;5028883;28;20210;-81
2022/10/21 01:14:57;;;;;;;7.82;5.13;;;16.20;99.90;;;;;;5022769;28;20181;-80
2022/10/21 01:17:51;;;;;;;6.07;5.05;;;16.20;99.90;;;;;;5035551;28;20177;-79
2022/10/21 01:20:41;;;;;;;6.57;5.20;;;16.20;99.90;;;;;;5012871;28;20217;-79
2022/10/21 01:23:44;;;;;;;9.15;5.53;;;16.20;99.90;;;;;;5030364;28;20182;-79
2022/10/21 01:26:23;;;;;;;6.25;5.00;;;16.10;99.90;;;;;;5028846;28;20197;-81
2022/10/21 01:29:03;;;;;;;6.68;5.90;;;16.10;99.90;;;;;;5024205;28;20225;-81
2022/10/21 01:31:45;;;;;;;7.22;5.28;;;16.10;99.90;;;;;;5018633;28;20185;-78
2022/10/21 01:34:27;;;;;;;7.15;5.70;;;16.10;99.90;;;;;;5032675;28;20199;-78
2022/10/21 01:37:04;;;;;;;7.10;5.45;;;16.10;99.90;;;;;;5031655;28;20265;-79
2022/10/21 01:39:47;;;;;;;7.05;5.35;;;16.00;99.90;;;;;;5034896;28;20204;-77
2022/10/21 01:42:50;;;;;;;6.28;5.30;;;16.00;99.90;;;;;;5034735;28;20174;-79
2022/10/21 01:45:27;;;;;;;7.25;5.50;;;16.00;99.90;;;;;;5034696;28;20292;-81
2022/10/21 01:47:58;;;;;;;8.05;6.00;;;16.00;99.90;;;;;;5030364;28;20206;-76
2022/10/21 01:50:32;;;;;;;7.05;5.90;;;15.90;99.90;;;;;;5035120;28;20240;-78
2022/10/21 01:53:01;;;;;;;8.48;6.50;;;15.90;99.90;;;;;;5033856;28;20182;-79
2022/10/21 01:55:30;;;;;;;9.60;6.32;;;15.90;99.90;;;;;;5034998;28;20177;-77
2022/10/21 01:58:01;;;;;;;8.48;6.72;;;15.90;99.90;;;;;;5034377;28;20205;-79
2022/10/21 02:00:28;;;;;;;7.63;6.22;;;15.90;99.90;;;;;;5034985;28;20190;-81
2022/10/21 02:02:58;;;;;;;10.25;6.07;;;15.90;99.90;;;;;;5034637;28;20193;-77
2022/10/21 02:05:33;;;;;;;6.80;5.50;;;15.90;99.90;;;;;;5034967;28;20166;-77
2022/10/21 02:08:02;;;;;;;6.70;5.95;;;16.00;99.90;;;;;;5027526;28;20248;-79
2022/10/21 02:10:33;;;;;;;7.45;6.10;;;16.00;99.90;;;;;;5031666;28;20174;-79
2022/10/21 02:13:02;;;;;;;9.35;5.43;;;16.00;99.90;;;;;;5033690;28;20177;-78
2022/10/21 02:15:29;;;;;;;7.43;5.38;;;16.00;99.90;;;;;;5025944;28;20184;-80
2022/10/21 02:18:08;;;;;;;7.35;5.22;;;16.00;99.90;;;;;;5027790;28;20229;-79
2022/10/21 02:20:37;;;;;;;7.25;5.07;;;16.00;99.90;;;;;;5018831;28;20247;-81
2022/10/21 02:23:05;;;;;;;7.20;5.40;;;16.00;99.90;;;;;;5034962;28;20170;-81
2022/10/21 02:25:39;;;;;;;5.65;5.05;;;16.00;99.90;;;;;;5014652;28;20189;-80
2022/10/21 02:28:08;;;;;;;7.47;5.40;;;16.00;99.90;;;;;;5037885;28;20196;-80
2022/10/21 02:31:05;;;;;;;6.78;5.20;;;15.90;99.90;;;;;;5038490;28;20231;-78
2022/10/21 02:34:09;;;;;;;6.97;5.43;;;16.00;99.90;;;;;;5036006;28;20280;-80
2022/10/21 02:36:49;;;;;;;7.30;5.00;;;16.00;99.90;;;;;;5019096;28;20204;-80
2022/10/21 02:39:35;;;;;;;6.25;4.20;;;16.00;99.90;;;;;;5035289;28;20200;-80
2022/10/21 02:42:08;;;;;;;4.93;4.15;;;16.00;99.90;;;;;;5038059;28;20198;-80
2022/10/21 02:44:37;;;;;;;6.00;4.72;;;16.00;99.90;;;;;;5038527;28;20165;-78
2022/10/21 02:47:05;;;;;;;5.28;4.32;;;16.00;99.90;;;;;;5038328;28;20181;-81
2022/10/21 02:49:30;;;;;;;5.05;4.00;;;16.00;99.90;;;;;;5032320;28;20326;-80
2022/10/21 02:51:56;;;;;;;4.50;4.10;;;16.00;99.90;;;;;;5036950;28;20197;-80
2022/10/21 02:54:22;;;;;;;5.03;4.32;;;15.90;99.90;;;;;;5021872;28;20194;-80
2022/10/21 02:56:48;;;;;;;5.35;4.15;;;16.00;99.90;;;;;;5037437;28;20158;-80
2022/10/21 02:59:14;;;;;;;5.18;4.28;;;15.90;99.90;;;;;;5038286;28;20224;-80
2022/10/21 03:01:39;;;;;;;4.95;3.90;;;15.90;99.90;;;;;;5019842;28;20218;-79
2022/10/21 03:04:05;;;;;;;5.82;4.28;;;15.90;99.90;;;;;;5027866;28;20209;-80
2022/10/21 03:06:30;;;;;;;5.13;3.70;;;15.90;99.90;;;;;;5038408;28;20247;-71
2022/10/21 03:08:58;;;;;;;3.45;3.15;;;15.90;99.90;;;;;;5036520;28;20288;-71
2022/10/21 03:11:24;;;;;;;4.25;3.60;;;15.90;99.90;;;;;;5018300;28;20217;-71
2022/10/21 03:13:49;;;;;;;3.78;3.30;;;15.90;99.90;;;;;;5021602;28;20171;-71
2022/10/21 03:16:17;;;;;;;3.60;3.30;;;15.90;99.90;;;;;;5037759;28;20190;-72
2022/10/21 03:18:43;;;;;;;3.75;3.25;;;15.90;99.90;;;;;;5037421;28;20170;-73
2022/10/21 03:21:08;;;;;;;4.93;3.30;;;15.90;99.90;;;;;;5037303;28;20170;-71
2022/10/21 03:23:34;;;;;;;3.90;2.83;;;15.80;99.90;;;;;;5037252;28;20187;-71
2022/10/21 03:26:02;;;;;;;4.78;3.17;;;15.80;99.90;;;;;;5023078;28;20193;-70
2022/10/21 03:28:29;;;;;;;4.38;3.92;;;15.80;99.90;;;;;;5018985;28;20249;-69
2022/10/21 03:30:55;;;;;;;5.90;3.45;;;15.80;99.90;;;;;;5022668;28;20210;-72
2022/10/21 03:33:20;;;;;;;4.70;3.60;;;15.80;99.90;;;;;;5034603;28;20200;-70
2022/10/21 03:35:46;;;;;;;5.68;3.67;;;15.80;99.90;;;;;;5024884;28;20199;-70
2022/10/21 03:38:12;;;;;;;4.03;3.25;;;15.80;99.90;;;;;;5036157;28;20173;-70
2022/10/21 03:40:39;;;;;;;6.43;4.22;;;15.80;99.90;;;;;;5037065;28;20178;-70
2022/10/21 03:43:05;;;;;;;5.05;3.70;;;15.80;99.90;;;;;;5024554;28;20243;-71
2022/10/21 03:45:33;;;;;;;4.20;3.60;;;15.80;99.90;;;;;;5031528;28;20271;-70
2022/10/21 03:47:58;;;;;;;5.22;3.42;;;15.80;99.90;;;;;;5027097;28;20209;-70
2022/10/21 03:50:26;;;;;;;4.57;3.58;;;15.80;99.90;;;;;;5019887;28;20170;-71
2022/10/21 03:52:52;;;;;;;4.47;3.65;;;15.80;99.90;;;;;;5017032;28;20264;-71
2022/10/21 03:55:22;;;;;;;4.95;3.60;;;15.80;99.90;;;;;;5035022;28;20197;-72
2022/10/21 03:57:48;;;;;;;6.13;3.78;;;15.80;99.90;;;;;;5036898;28;20174;-71
2022/10/21 04:00:17;;;;;;;5.20;3.47;;;15.90;99.90;;;;;;5037046;28;20170;-71
2022/10/21 04:02:43;;;;;;;4.30;3.85;;;15.90;99.90;;;;;;5036256;28;20304;-72
2022/10/21 04:05:09;;;;;;;5.72;3.17;;;15.90;99.90;;;;;;5033540;28;20265;-70
2022/10/21 04:07:35;;;;;;;4.55;3.75;;;15.90;99.90;;;;;;5017270;28;20207;-70
2022/10/21 04:10:00;;;;;;;4.25;3.30;;;15.90;99.90;;;;;;5034216;28;20178;-71
2022/10/21 04:12:26;;;;;;;4.18;3.58;;;16.00;99.90;;;;;;5023927;28;20193;-70
2022/10/21 04:14:54;;;;;;;3.50;3.20;;;16.00;99.90;;;;;;5033582;28;20178;-71
2022/10/21 04:17:20;;;;;;;4.90;2.88;;;16.00;99.90;;;;;;5036639;28;20174;-71
2022/10/21 04:19:45;;;;;;;4.68;3.35;;;16.00;99.90;;;;;;5035673;28;20201;-71
2022/10/21 04:22:14;;;;;;;3.83;3.05;;;16.00;99.90;;;;;;5035881;28;20193;-71
2022/10/21 04:24:41;;;;;;;4.82;3.22;;;16.10;99.90;;;;;;5031032;28;20205;-71
2022/10/21 04:27:07;;;;;;;3.65;2.60;;;16.10;99.90;;;;;;5025161;28;20218;-71
2022/10/21 04:29:35;;;;;;;6.05;2.85;;;16.10;99.90;;;;;;5025214;28;20178;-71
2022/10/21 04:32:03;;;;;;;3.70;2.75;;;16.20;99.90;;;;;;5035218;28;20212;-71
2022/10/21 04:34:29;;;;;;;4.00;2.78;;;16.10;99.90;;;;;;5036378;28;20189;-71
2022/10/21 04:36:54;;;;;;;3.67;2.72;;;16.10;99.90;;;;;;5032588;28;20397;-71
2022/10/21 04:39:20;;;;;;;3.97;3.03;;;16.20;99.90;;;;;;5036133;28;20194;-71
2022/10/21 04:41:48;;;;;;;3.63;2.67;;;16.20;99.90;;;;;;5035718;28;20197;-72
2022/10/21 04:44:14;;;;;;;3.95;2.80;;;16.20;99.90;;;;;;5025422;28;20248;-70
2022/10/21 04:46:39;;;;;;;3.05;2.75;;;16.30;99.90;;;;;;5016601;28;20179;-71
2022/10/21 04:49:05;;;;;;;3.13;2.83;;;16.30;99.90;;;;;;5035840;28;20213;-72
2022/10/21 04:51:31;;;;;;;3.38;2.85;;;16.20;99.90;;;;;;5024996;28;20296;-71
2022/10/21 04:53:56;;;;;;;4.25;3.40;;;16.30;99.90;;;;;;5020527;28;20274;-72
2022/10/21 04:56:22;;;;;;;5.47;3.15;;;16.30;99.90;;;;;;5035611;28;20166;-71
2022/10/21 04:58:48;;;;;;;3.90;3.03;;;16.30;99.90;;;;;;5029312;28;20203;-71
2022/10/21 05:01:16;;;;;;;3.00;2.70;;;16.30;99.90;;;;;;5035211;28;20205;-71
2022/10/21 05:03:44;;;;;;;3.17;2.40;;;16.30;99.90;;;;;;5029508;28;20162;-71
2022/10/21 05:06:09;;;;;;;3.38;2.83;;;16.30;99.90;;;;;;5030335;28;20185;-71
2022/10/21 05:08:35;;;;;;;3.03;2.50;;;16.30;99.90;;;;;;5035025;28;20182;-71
2022/10/21 05:11:04;;;;;;;3.60;2.13;;;16.40;99.90;;;;;;5035183;28;20288;-72
2022/10/21 05:13:30;;;;;;;3.53;2.63;;;16.40;99.90;;;;;;5035512;28;20188;-70
2022/10/21 05:16:03;;;;;;;2.70;2.50;;;16.40;99.90;;;;;;5024592;28;20186;-72
2022/10/21 05:18:31;;;;;;;3.70;2.55;;;16.40;99.90;;;;;;5033882;28;20186;-70
2022/10/21 05:20:59;;;;;;;3.90;2.92;;;16.40;99.90;;;;;;5021939;28;20194;-71
2022/10/21 05:23:27;;;;;;;3.35;2.67;;;16.40;99.90;;;;;;5031412;28;20465;-71
2022/10/21 05:25:55;;;;;;;3.22;2.30;;;16.40;99.90;;;;;;5034974;28;20190;-71
2022/10/21 05:28:21;;;;;;;3.53;2.55;;;16.40;99.90;;;;;;5034021;28;20208;-70
2022/10/21 05:30:49;;;;;;;2.88;2.17;;;16.30;99.90;;;;;;5034445;28;20269;-71
2022/10/21 05:33:15;;;;;;;3.20;2.38;;;16.40;99.90;;;;;;5035057;28;20297;-72
2022/10/21 05:35:40;;;;;;;4.55;2.20;;;16.30;99.90;;;;;;5019227;28;20170;-71
2022/10/21 05:38:09;;;;;;;3.47;2.50;;;16.30;99.90;;;;;;5022090;28;20217;-71
2022/10/21 05:40:37;;;;;;;2.50;2.22;;;16.30;99.90;;;;;;5034879;28;20193;-70
2022/10/21 05:43:02;;;;;;;2.95;2.22;;;16.30;99.90;;;;;;5030983;28;20182;-71
2022/10/21 05:45:30;;;;;;;2.90;2.40;;;16.30;99.90;;;;;;5030705;28;20179;-71
2022/10/21 05:47:58;;;;;;;3.42;2.55;;;16.30;99.90;;;;;;5014972;28;20182;-70
2022/10/21 05:50:24;;;;;;;2.45;2.05;;;16.30;99.90;;;;;;5029084;28;20201;-72
2022/10/21 05:52:49;;;;;;;2.95;2.63;;;16.20;99.90;;;;;;5024682;28;20198;-71
2022/10/21 05:55:15;;;;;;;2.75;2.15;;;16.30;99.90;;;;;;5019513;28;20189;-72
2022/10/21 05:57:43;;;;;;;3.83;2.90;;;16.30;99.90;;;;;;5032803;28;20167;-73
2022/10/21 06:00:12;;;;;;;2.90;2.30;;;16.30;99.90;;;;;;5032763;28;20178;-72
2022/10/21 06:02:39;;;;;;;2.60;2.40;;;16.20;99.90;;;;;;5030381;28;20189;-72
2022/10/21 06:05:05;;;;;;;2.83;2.47;;;16.30;99.90;;;;;;5034629;28;20188;-72
2022/10/21 06:07:34;;;;;;;3.05;2.65;;;16.20;99.90;;;;;;5018891;28;20170;-71
2022/10/21 06:09:59;;;;;;;3.40;2.80;;;16.30;99.90;;;;;;5015526;28;20202;-71
2022/10/21 06:12:27;;;;;;;3.72;2.53;;;16.30;99.90;;;;;;5014790;28;20209;-72
2022/10/21 06:14:55;;;;;;;3.05;2.20;;;16.30;99.90;;;;;;5042310;28;20177;-72
2022/10/21 06:17:24;;;;;;;3.13;2.38;;;16.30;99.90;;;;;;5042066;28;20233;-73
2022/10/21 06:19:49;;;;;;;3.28;2.47;;;16.30;99.90;;;;;;5019518;28;20170;-73
2022/10/21 06:22:15;;;;;;;2.50;2.20;;;16.30;99.90;;;;;;5030025;28;20193;-72
2022/10/21 06:24:45;;;;;;;2.33;2.13;;;16.20;99.90;;;;;;5030585;28;20183;-73
2022/10/21 06:27:11;;;;;;;2.78;2.10;;;16.20;99.90;;;;;;5034167;28;20177;-72
2022/10/21 06:29:37;;;;;;;5.20;2.13;;;16.30;99.90;;;;;;5031352;28;20205;-73
2022/10/21 06:32:03;;;;;;;3.42;2.33;;;16.30;99.90;;;;;;5022807;28;20190;-72
2022/10/21 06:34:31;;;;;;;2.40;2.08;;;16.30;99.90;;;;;;5021233;28;20256;-71
2022/10/21 06:37:01;;;;;;;3.63;2.17;;;16.30;99.90;;;;;;5034016;28;20185;-72
2022/10/21 06:39:28;;;;;;;2.95;2.05;;;16.30;99.90;;;;;;5033661;28;20166;-72
2022/10/21 06:41:54;;;;;;;2.10;1.90;;;16.30;99.90;;;;;;5022941;28;20206;-72
2022/10/21 06:44:22;;;;;;;3.22;2.20;;;16.30;99.90;;;;;;5024016;28;20188;-72
2022/10/21 06:46:53;;;;;;;5.05;2.25;;;16.40;99.90;;;;;;5014535;28;20186;-72
2022/10/21 06:49:18;;;;;;;2.35;2.05;;;16.40;99.90;;;;;;5024960;28;20292;-73
2022/10/21 06:51:46;;;;;;;2.35;1.65;;;16.40;99.90;;;;;;5034544;28;20254;-72
2022/10/21 06:54:14;;;;;;;2.90;2.05;;;16.40;99.90;;;;;;5043402;28;20213;-72
2022/10/21 06:56:40;;;;;;;4.82;2.03;;;16.40;99.90;;;;;;5033783;28;20186;-72
2022/10/21 06:59:08;;;;;;;2.80;2.10;;;16.50;99.90;;;;;;5033908;28;20244;-72
2022/10/21 07:01:35;;;;;;;3.33;2.28;;;16.50;99.90;;;;;;5033200;28;20195;-72
2022/10/21 07:04:05;;;;;;;3.45;2.05;;;16.50;99.90;;;;;;5016950;28;20186;-72
2022/10/21 07:06:31;;;;;;;2.45;1.90;;;16.50;99.90;;;;;;5026863;28;20244;-72
2022/10/21 07:08:59;;;;;;;2.00;1.83;;;16.50;99.90;;;;;;5033085;28;20206;-71
2022/10/21 07:11:26;;;;;;;2.38;2.00;;;16.50;99.90;;;;;;5034074;28;20229;-71
2022/10/21 07:13:55;;;;;;;4.57;2.60;;;16.50;99.90;;;;;;5035738;28;20182;-72
2022/10/21 07:16:34;;;;;;;4.60;2.92;;;16.60;99.90;;;;;;5028274;28;20206;-72
2022/10/21 07:19:00;;;;;;;4.85;2.97;;;16.60;99.90;;;;;;5026559;28;20174;-71
2022/10/21 07:21:29;;;;;;;4.82;2.65;;;16.60;99.90;;;;;;5034501;28;20206;-73
2022/10/21 07:23:58;;;;;;;2.95;2.17;;;16.60;99.90;;;;;;5018038;28;20217;-72
2022/10/21 07:26:25;;;;;;;4.03;2.40;;;16.60;99.90;;;;;;5029025;28;20178;-71
2022/10/21 07:28:53;;;;;;;2.90;2.38;;;16.60;99.90;;;;;;5037334;28;20185;-72
2022/10/21 07:31:20;;;;;;;5.80;2.30;;;16.70;99.90;;;;;;5017757;28;20264;-71
2022/10/21 07:33:49;;;;;;;3.22;2.03;;;16.70;99.90;;;;;;5025679;28;20202;-72
2022/10/21 07:36:18;;;;;;;4.22;2.42;;;16.70;99.90;;;;;;5037175;28;20181;-72
2022/10/21 07:38:48;;;;;;;3.65;2.20;;;16.70;99.90;;;;;;5036878;28;20174;-73
2022/10/21 07:41:36;;;;;;;3.53;2.47;;;16.70;99.90;;;;;;5036714;28;20184;-71
2022/10/21 07:44:02;;;;;;;4.13;2.53;;;16.80;99.90;;;;;;5033142;28;20170;-72
2022/10/21 07:46:32;;;;;;;3.80;2.50;;;16.80;99.90;;;;;;5036762;28;20198;-72
2022/10/21 07:49:00;;;;;;;2.85;2.53;;;16.80;99.90;;;;;;5033521;28;20194;-73
2022/10/21 07:51:26;;;;;;;3.22;2.63;;;16.80;99.90;;;;;;5025911;28;20206;-72
2022/10/21 07:53:53;;;;;;;4.25;2.75;;;16.90;99.90;;;;;;5035735;28;20235;-72
2022/10/21 07:56:25;;;;;;;3.63;2.70;;;16.80;99.90;;;;;;5033473;28;20179;-72
2022/10/21 07:58:51;;;;;;;3.17;2.50;;;16.80;99.90;;;;;;5036528;28;20213;-71
2022/10/21 08:01:18;;;;;;;3.80;2.22;;;16.90;99.90;;;;;;5036564;28;20216;-72
2022/10/21 08:03:44;;;;;;;3.20;2.55;;;16.90;99.90;;;;;;5036530;28;20193;-72
2022/10/21 08:06:11;;;;;;;4.65;2.58;;;16.90;99.90;;;;;;5040617;28;20174;-72
2022/10/21 08:08:37;;;;;;;3.42;2.40;;;16.90;99.90;;;;;;5034092;28;20239;-72
2022/10/21 08:11:03;;;;;;;4.45;2.67;;;16.90;99.90;;;;;;5030104;28;20311;-72
2022/10/21 08:13:30;;;;;;;3.10;2.13;;;16.90;99.90;;;;;;5036826;28;20265;-72
2022/10/21 08:16:00;;;;;;;3.22;2.38;;;16.90;99.90;;;;;;5035864;28;20204;-73
2022/10/21 08:18:26;;;;;;;7.75;2.65;;;17.00;99.90;;;;;;5036431;28;20288;-72
2022/10/21 08:20:53;;;;;;;4.32;2.47;;;16.90;99.90;;;;;;5036546;28;20245;-73
2022/10/21 08:23:20;;;;;;;3.33;2.50;;;16.90;99.90;;;;;;5025568;28;20174;-71
2022/10/21 08:25:53;;;;;;;2.75;2.20;;;16.90;99.90;;;;;;5016792;28;20175;-72
2022/10/21 08:28:23;;;;;;;5.78;2.78;;;17.00;99.90;;;;;;5016850;28;20199;-73
2022/10/21 08:30:48;;;;;;;5.80;2.65;;;16.90;99.90;;;;;;5030793;28;20239;-71
2022/10/21 08:33:14;;;;;;;5.07;2.50;;;16.90;99.90;;;;;;5035651;28;20181;-73
2022/10/21 08:35:40;;;;;;;3.67;2.60;;;16.90;99.90;;;;;;5034704;28;20174;-73
2022/10/21 08:38:07;;;;;;;4.03;2.40;;;16.90;99.90;;;;;;5016387;28;20462;-72
2022/10/21 08:40:59;;;;;;;5.70;2.60;;;16.90;99.90;;;;;;5016089;28;20170;-72
2022/10/21 08:43:33;;;;;;;4.32;2.60;;;16.90;99.90;;;;;;5016607;28;20230;-72
2022/10/21 08:46:23;;;;;;;4.88;2.60;;;16.90;99.90;;;;;;5016319;28;20238;-72
2022/10/21 08:48:55;;;;;;;4.60;2.67;;;16.90;99.90;;;;;;5035329;28;20301;-72
2022/10/21 08:51:40;;;;;;;5.47;2.78;;;16.90;99.90;;;;;;5035898;28;20252;-72
2022/10/21 08:54:18;;;;;;;5.05;2.80;;;16.90;99.90;;;;;;5036117;28;20166;-72
2022/10/21 08:56:45;;;;;;;5.18;3.17;;;16.90;99.90;;;;;;5035983;28;20310;-72
2022/10/21 08:59:22;;;;;;;4.35;2.90;;;16.90;99.90;;;;;;5026341;28;20202;-72
2022/10/21 09:01:56;;;;;;;3.42;2.47;;;16.90;99.90;;;;;;5023862;28;20213;-73
2022/10/21 09:04:42;;;;;;;3.53;2.45;;;16.90;99.90;;;;;;5020245;28;20314;-73
2022/10/21 09:07:22;;;;;;;3.08;2.55;;;16.90;99.90;;;;;;5034182;28;20340;-72
2022/10/21 09:09:57;;;;;;;4.22;2.47;;;16.90;99.90;;;;;;5034750;28;20234;-72
2022/10/21 09:12:38;;;;;;;5.35;2.38;;;16.90;99.90;;;;;;5030777;28;20216;-72
2022/10/21 09:15:22;;;;;;;3.90;2.80;;;16.90;99.90;;;;;;5033843;28;20182;-72
2022/10/21 09:18:16;;;;;;;3.10;2.47;;;16.90;99.90;;;;;;5037185;28;20224;-72
2022/10/21 09:21:29;;;;;;;3.00;2.45;;;16.90;99.90;;;;;;5020207;28;20199;-72
2022/10/21 09:24:06;;;;;;;2.97;2.50;;;16.90;99.90;;;;;;5014050;28;20170;-72
2022/10/21 09:26:35;;;;;;;3.35;2.50;;;16.90;99.90;;;;;;5019051;28;20201;-72
2022/10/21 09:29:17;;;;;;;3.95;2.65;;;16.90;99.90;;;;;;5035282;28;20170;-72
2022/10/21 09:31:45;;;;;;;3.28;2.80;;;16.90;99.90;;;;;;5034775;28;20213;-72
2022/10/21 09:34:39;;;;;;;6.30;2.65;;;16.90;99.90;;;;;;5034540;28;20170;-72
2022/10/21 09:37:12;;;;;;;3.95;2.88;;;16.90;99.90;;;;;;5024403;28;20194;-71
2022/10/21 09:39:46;;;;;;;4.78;2.70;;;16.90;99.90;;;;;;5015242;28;20198;-72
2022/10/21 09:42:14;;;;;;;4.25;2.50;;;16.80;99.90;;;;;;5023751;28;20177;-72
2022/10/21 09:44:45;;;;;;;4.75;2.55;;;16.80;99.90;;;;;;5034210;28;20169;-72
2022/10/21 09:47:23;;;;;;;3.72;2.42;;;16.80;99.90;;;;;;5032268;28;20220;-72
2022/10/21 09:50:00;;;;;;;4.10;2.50;;;16.80;99.90;;;;;;5031912;28;20177;-72
2022/10/21 09:52:31;;;;;;;5.07;2.63;;;16.90;99.90;;;;;;5033992;28;20209;-72
2022/10/21 09:54:57;;;;;;;3.55;2.80;;;16.90;99.90;;;;;;5025339;28;20188;-72
2022/10/21 09:57:44;;;;;;;2.83;2.40;;;16.90;99.90;;;;;;5034615;28;20174;-72
2022/10/21 10:00:13;;;;;;;4.22;2.58;;;16.90;99.90;;;;;;5034453;28;20194;-72
2022/10/21 10:02:42;;;;;;;8.35;2.90;;;16.90;99.90;;;;;;5025697;28;20256;-72
2022/10/21 10:05:34;;;;;;;3.45;2.58;;;16.90;99.90;;;;;;5034311;28;20205;-72
2022/10/21 10:08:27;;;;;;;3.72;2.42;;;17.00;99.90;;;;;;5031669;28;20174;-73
2022/10/21 10:11:10;;;;;;;2.97;2.30;;;16.90;99.90;;;;;;5033351;28;20212;-72
2022/10/21 10:14:03;;;;;;;4.00;2.72;;;16.90;99.90;;;;;;5033893;28;20174;-72
2022/10/21 10:16:33;;;;;;;3.35;2.33;;;17.00;99.90;;;;;;5019925;28;20170;-71
2022/10/21 10:19:25;;;;;;;2.95;2.38;;;17.00;99.90;;;;;;5015436;28;20166;-72
2022/10/21 10:22:27;;;;;;;2.95;2.17;;;17.00;99.90;;;;;;5029340;28;20176;-72
2022/10/21 10:25:25;;;;;;;3.38;2.28;;;17.00;99.90;;;;;;4997037;28;20293;-72
2022/10/21 10:27:53;;;;;;;3.10;2.17;;;17.00;99.90;;;;;;5014454;28;20185;-72
2022/10/21 10:30:23;;;;;;;4.07;2.08;;;17.10;99.90;;;;;;5021635;28;20202;-71
2022/10/21 10:32:57;;;;;;;2.28;2.03;;;17.10;99.90;;;;;;5034458;28;20356;-72
2022/10/21 10:35:34;;;;;;;3.10;2.33;;;17.10;99.90;;;;;;5017450;28;20261;-72
2022/10/21 10:38:06;;;;;;;3.55;2.22;;;17.20;99.90;;;;;;5023923;28;20170;-73
2022/10/21 10:40:40;;;;;;;6.85;2.10;;;17.20;99.90;;;;;;5034134;28;20166;-72
2022/10/21 10:43:29;;;;;;;2.63;1.85;;;17.30;99.90;;;;;;5034049;28;20208;-72
2022/10/21 10:46:02;;;;;;;3.08;2.22;;;17.30;99.90;;;;;;5034305;28;20174;-72
2022/10/21 10:48:40;;;;;;;5.15;2.15;;;17.30;99.90;;;;;;5036471;28;20287;-72
2022/10/21 10:51:23;;;;;;;2.28;2.00;;;17.30;99.90;;;;;;5030059;28;20227;-72
2022/10/21 10:54:13;;;;;;;2.85;2.17;;;17.40;99.90;;;;;;5025636;28;20182;-72
2022/10/21 10:56:39;;;;;;;2.45;2.05;;;17.40;99.90;;;;;;5020387;28;20182;-72
2022/10/21 10:59:27;;;;;;;3.35;2.10;;;17.40;99.90;;;;;;5018168;28;20173;-72
2022/10/21 11:02:08;;;;;;;2.78;2.15;;;17.40;99.90;;;;;;5018038;28;20210;-72
2022/10/21 11:04:45;;;;;;;3.58;2.08;;;17.40;99.90;;;;;;5018407;28;20170;-72
2022/10/21 11:07:26;;;;;;;3.53;2.22;;;17.50;99.90;;;;;;5026500;28;20232;-72
2022/10/21 11:10:00;;;;;;;2.63;2.20;;;17.60;99.90;;;;;;5037749;28;20235;-72
2022/10/21 11:12:29;;;;;;;3.00;2.15;;;17.60;99.90;;;;;;5037904;28;20288;-72
2022/10/21 11:14:59;;;;;;;4.43;2.38;;;17.70;99.90;;;;;;5019569;28;20213;-72
2022/10/21 11:17:39;;;;;;;2.70;2.25;;;17.80;99.90;;;;;;5025036;28;20186;-72
2022/10/21 11:20:19;;;;;;;4.80;2.47;;;17.90;99.90;;;;;;5037107;28;20224;-72
2022/10/21 11:23:05;;;;;;;3.65;2.38;;;18.00;99.90;;;;;;5037580;28;20184;-71
2022/10/21 11:25:54;;;;;;;4.88;2.58;;;18.10;99.90;;;;;;5036996;28;20192;-72
2022/10/21 11:28:32;;;;;;;4.22;2.70;;;18.20;99.90;;;;;;5027626;28;20206;-73
2022/10/21 11:31:22;;;;;;;4.07;3.08;;;18.40;99.90;;;;;;5036383;28;20158;-73
2022/10/21 11:34:06;;;;;;;3.45;2.70;;;18.50;99.90;;;;;;5018276;28;20167;-73
2022/10/21 11:36:40;;;;;;;3.08;2.50;;;18.60;99.90;;;;;;5037509;28;20433;-73
2022/10/21 11:39:16;;;;;;;3.20;2.20;;;18.70;99.90;;;;;;5035479;28;20208;-73
2022/10/21 11:41:50;;;;;;;4.40;2.13;;;18.80;99.90;;;;;;5037318;28;20258;-73
2022/10/21 11:44:23;;;;;;;3.10;2.47;;;18.80;99.90;;;;;;5037830;28;20181;-73
2022/10/21 11:46:57;;;;;;;3.58;2.60;;;18.90;99.90;;;;;;5025718;28;20258;-73
2022/10/21 11:49:34;;;;;;;4.32;2.60;;;19.00;99.90;;;;;;5023392;28;20170;-73
2022/10/21 11:52:14;;;;;;;2.78;2.20;;;19.10;99.90;;;;;;5018073;28;20238;-73
2022/10/21 11:55:07;;;;;;;3.22;2.38;;;19.20;99.90;;;;;;5017543;28;20187;-73
2022/10/21 11:58:01;;;;;;;3.10;2.05;;;19.50;99.90;;;;;;5026672;28;20205;-73
2022/10/21 12:00:35;;;;;;;3.75;2.20;;;19.80;99.90;;;;;;5020452;28;20201;-73
2022/10/21 12:03:14;;;;;;;2.75;2.30;;;20.10;99.90;;;;;;5037015;28;20205;-73
2022/10/21 12:05:59;;;;;;;2.20;1.88;;;20.40;99.90;;;;;;5018160;28;20182;-73
2022/10/21 12:08:55;;;;;;;2.13;1.83;;;20.80;99.90;;;;;;5031386;28;20177;-72
2022/10/21 12:11:42;;;;;;;2.63;1.80;;;21.10;99.90;;;;;;5019494;28;20237;-72
2022/10/21 12:14:24;;;;;;;2.20;1.73;;;21.50;99.90;;;;;;5036462;28;20216;-72
2022/10/21 12:16:53;;;;;;;3.45;1.50;;;21.80;99.90;;;;;;5037175;28;20210;-71
2022/10/21 12:19:19;;;;;;;2.33;1.58;;;22.00;99.90;;;;;;5036341;28;20257;-72
2022/10/21 12:21:45;;;;;;;2.22;1.35;;;22.10;99.90;;;;;;5036129;28;20185;-74
2022/10/21 12:24:10;;;;;;;2.00;1.20;;;22.20;99.90;;;;;;5033706;28;20170;-71
2022/10/21 12:26:50;;;;;;;1.33;1.23;;;22.10;99.90;;;;;;5016919;28;20182;-72
2022/10/21 12:29:54;;;;;;;2.15;1.20;;;22.10;99.90;;;;;;5029737;28;20206;-72
2022/10/21 12:32:35;;;;;;;2.00;1.40;;;22.00;99.90;;;;;;5034505;28;20296;-73
2022/10/21 12:35:02;;;;;;;1.67;1.40;;;21.90;99.90;;;;;;5032809;28;20260;-73
2022/10/21 12:37:49;;;;;;;1.50;1.17;;;21.90;99.90;;;;;;5033095;28;20172;-73
2022/10/21 12:40:24;;;;;;;1.70;1.02;;;21.70;99.90;;;;;;5034986;28;20185;-73
2022/10/21 12:43:07;;;;;;;2.85;1.20;;;21.70;99.90;;;;;;5036145;28;20217;-73
2022/10/21 12:45:36;;;;;;;1.92;1.00;;;21.50;99.90;;;;;;5035841;28;20265;-73
2022/10/21 12:48:27;;;;;;;0.82;0.80;;;21.40;99.90;;;;;;5036083;28;20194;-73
2022/10/21 12:51:02;;;;;;;1.02;0.90;;;21.30;99.90;;;;;;5020423;28;20173;-73
2022/10/21 12:53:28;;;;;;;0.88;0.70;;;21.30;99.90;;;;;;5046482;28;20177;-73
2022/10/21 12:55:57;;;;;;;1.75;0.85;;;21.20;99.90;;;;;;5054326;28;20184;-72
2022/10/21 12:58:43;;;;;;;2.00;1.05;;;21.20;99.90;;;;;;5031674;28;20186;-73
2022/10/21 13:01:37;;;;;;;1.45;0.90;;;21.20;99.90;;;;;;5019850;28;20198;-72
2022/10/21 13:04:04;;;;;;;2.00;1.02;;;21.20;99.90;;;;;;5027852;28;20182;-74
2022/10/21 13:07:19;;;;;;;1.58;0.90;;;21.20;99.90;;;;;;5035677;28;20280;-73
2022/10/21 13:09:52;;;;;;;1.48;1.15;;;21.20;99.90;;;;;;5010970;28;20189;-72
2022/10/21 13:12:24;;;;;;;2.55;1.00;;;21.20;99.90;;;;;;5015426;28;20209;-73
2022/10/21 13:14:49;;;;;;;1.83;1.23;;;21.10;99.90;;;;;;5016086;28;20178;-73